createdAt,value
2023-05-07T00:01:37.971Z,18.60
2023-05-07T00:04:04.860Z,18.36
2023-05-07T00:06:31.593Z,18.28
2023-05-07T00:08:58.759Z,18.29
2023-05-07T00:14:00.793Z,18.44
2023-05-07T00:16:27.426Z,18.47
2023-05-07T00:18:54.938Z,18.21
2023-05-07T00:21:22.554Z,18.27
2023-05-07T00:23:49.356Z,18.24
2023-05-07T00:26:37.804Z,18.24
2023-05-07T00:29:04.381Z,18.23
2023-05-07T00:31:30.987Z,17.99
2023-05-07T00:33:57.592Z,17.87
2023-05-07T00:37:27.065Z,17.78
2023-05-07T00:42:50.065Z,17.73
2023-05-07T00:45:18.051Z,17.71
2023-05-07T00:47:45.070Z,17.70
2023-05-07T00:50:13.783Z,17.64
2023-05-07T00:52:40.928Z,17.72
2023-05-07T00:58:03.252Z,17.98
2023-05-07T01:00:29.895Z,17.75
2023-05-07T01:02:56.686Z,17.81
2023-05-07T01:05:25.427Z,17.90
2023-05-07T01:14:09.928Z,17.55
2023-05-07T01:16:37.695Z,17.31
2023-05-07T01:19:04.665Z,16.98
2023-05-07T01:21:35.455Z,17.06
2023-05-07T01:24:02.131Z,17.24
2023-05-07T01:29:03.925Z,17.48
2023-05-07T01:31:30.915Z,17.48
2023-05-07T01:34:00.507Z,17.54
2023-05-07T01:42:45.047Z,17.51
2023-05-07T01:45:12.399Z,17.40
2023-05-07T01:47:40.472Z,17.33
2023-05-07T01:50:09.726Z,17.30
2023-05-07T01:52:39.171Z,17.32
2023-05-07T01:57:41.152Z,16.87
2023-05-07T02:00:09.765Z,16.82
2023-05-07T02:02:37.182Z,16.71
2023-05-07T02:05:51.101Z,16.60
2023-05-07T02:11:29.350Z,16.54
2023-05-07T02:13:56.126Z,16.46
2023-05-07T02:16:24.211Z,16.30
2023-05-07T02:18:50.899Z,16.29
2023-05-07T02:21:17.586Z,16.31
2023-05-07T02:23:44.224Z,16.24
2023-05-07T02:26:26.953Z,16.34
2023-05-07T02:28:54.737Z,16.29
2023-05-07T02:31:21.321Z,16.17
2023-05-07T02:33:47.910Z,16.21
2023-05-07T02:36:52.569Z,16.27
2023-05-07T02:41:54.396Z,16.28
2023-05-07T02:44:20.959Z,16.14
2023-05-07T02:46:47.490Z,16.16
2023-05-07T02:49:14.094Z,16.14
2023-05-07T02:51:40.791Z,16.06
2023-05-07T02:56:42.586Z,16.29
2023-05-07T02:59:09.110Z,16.10
2023-05-07T03:01:35.794Z,16.03
2023-05-07T03:04:02.708Z,16.11
2023-05-07T03:06:29.350Z,16.16
2023-05-07T03:09:20.730Z,16.17
2023-05-07T03:12:37.770Z,16.19
2023-05-07T03:15:26.222Z,16.22
2023-05-07T03:17:52.826Z,16.16
2023-05-07T03:20:19.546Z,16.19
2023-05-07T03:22:46.271Z,16.16
2023-05-07T03:27:48.146Z,16.13
2023-05-07T03:30:14.924Z,16.22
2023-05-07T03:32:41.887Z,16.19
2023-05-07T03:35:08.719Z,16.16
2023-05-07T03:37:35.333Z,16.24
2023-05-07T03:42:37.384Z,16.08
2023-05-07T03:45:04.344Z,16.07
2023-05-07T03:47:31.389Z,16.31
2023-05-07T03:53:49.843Z,16.62
2023-05-07T03:56:17.842Z,16.61
2023-05-07T03:58:46.565Z,16.60
2023-05-07T04:01:13.173Z,16.66
2023-05-07T04:03:39.776Z,16.74
2023-05-07T04:06:06.931Z,16.78
2023-05-07T04:16:41.998Z,16.88
2023-05-07T04:26:04.948Z,16.63
2023-05-07T04:28:31.563Z,16.69
2023-05-07T04:30:58.636Z,16.69
2023-05-07T04:33:25.349Z,16.68
2023-05-07T04:35:51.925Z,16.73
2023-05-07T04:38:42.705Z,16.80
2023-05-07T04:41:10.524Z,16.97
2023-05-07T04:43:37.116Z,17.10
2023-05-07T04:46:03.719Z,17.17
2023-05-07T05:25:09.047Z,18.30
2023-05-07T05:27:36.816Z,18.30
2023-05-07T05:30:04.518Z,18.34
2023-05-07T05:32:31.179Z,18.44
2023-05-07T05:34:57.776Z,18.58
2023-05-07T05:37:24.465Z,18.71
2023-05-07T06:06:35.943Z,19.76
2023-05-07T06:09:02.538Z,19.84
2023-05-07T06:11:29.090Z,19.88
2023-05-07T06:13:55.624Z,20.02
2023-05-07T06:16:22.235Z,20.04
2023-05-07T06:18:48.806Z,20.15
2023-05-07T06:21:16.292Z,20.09
2023-05-07T06:24:01.734Z,20.26
2023-05-07T06:26:28.260Z,20.35
2023-05-07T06:28:54.798Z,20.28
2023-05-07T06:31:21.659Z,20.51
2023-05-07T06:34:37.144Z,20.73
2023-05-07T06:37:32.202Z,20.81
2023-05-07T06:40:07.599Z,21.13
2023-05-07T06:42:34.195Z,21.11
2023-05-07T06:45:00.809Z,21.33
2023-05-07T06:47:30.382Z,21.41
2023-05-07T06:49:57.335Z,21.54
2023-05-07T06:52:46.441Z,21.58
2023-05-07T06:55:14.040Z,21.51
2023-05-07T06:57:40.987Z,21.62
2023-05-07T07:00:21.151Z,21.71
2023-05-07T07:02:47.750Z,21.67
2023-05-07T07:05:14.634Z,21.67
2023-05-07T07:07:41.732Z,21.76
2023-05-07T07:10:09.051Z,21.72
2023-05-07T07:12:49.595Z,21.89
2023-05-07T09:05:41.397Z,22.78
2023-05-07T09:08:09.073Z,22.84
2023-05-07T09:10:35.701Z,22.91
2023-05-07T09:13:04.016Z,22.86
2023-05-07T09:15:33.506Z,22.98
2023-05-07T10:08:09.799Z,24.10
2023-05-07T10:10:45.087Z,23.72
2023-05-07T10:33:38.734Z,22.80
2023-05-07T10:36:17.657Z,23.15
2023-05-07T10:38:44.770Z,22.97
2023-05-07T10:41:12.338Z,23.03
2023-05-07T10:44:02.436Z,23.06
2023-05-07T10:46:29.316Z,23.00
2023-05-07T10:49:01.804Z,23.12
2023-05-07T10:51:29.305Z,22.99
2023-05-07T10:54:11.322Z,23.14
2023-05-07T10:56:47.083Z,23.31
2023-05-07T10:59:28.138Z,23.31
2023-05-07T11:02:00.256Z,23.20
2023-05-07T11:04:32.462Z,22.97
2023-05-07T11:07:11.223Z,23.11
2023-05-07T11:09:56.979Z,23.24
2023-05-07T11:12:39.163Z,23.21
2023-05-07T11:15:10.926Z,23.60
2023-05-07T11:17:58.987Z,23.53
2023-05-07T11:20:58.121Z,23.86
2023-05-07T11:23:38.311Z,23.85
2023-05-07T11:26:09.565Z,24.05
2023-05-07T11:28:42.986Z,24.36
2023-05-07T11:31:11.063Z,24.54
2023-05-07T11:33:39.169Z,24.22
2023-05-07T11:36:08.792Z,24.37
2023-05-07T11:38:39.705Z,24.43
2023-05-07T11:41:06.505Z,24.32
2023-05-07T11:43:34.085Z,24.42
2023-05-07T11:46:10.190Z,24.74
2023-05-07T11:48:42.536Z,24.70
2023-05-07T11:51:16.184Z,24.79
2023-05-07T11:53:44.441Z,24.97
2023-05-07T11:56:16.318Z,25.03
2023-05-07T11:59:13.781Z,25.06
2023-05-07T12:25:00.622Z,25.36
2023-05-07T12:27:27.562Z,25.48
2023-05-07T12:29:54.202Z,25.49
2023-05-07T12:42:08.693Z,25.49
2023-05-07T12:44:36.149Z,25.28
2023-05-07T12:47:03.833Z,25.00
2023-05-07T12:49:30.797Z,25.25
2023-05-07T12:54:34.344Z,25.46
2023-05-07T12:57:10.842Z,25.42
2023-05-07T12:59:39.305Z,25.43
2023-05-07T13:02:06.431Z,25.63
2023-05-07T13:04:33.697Z,25.44
2023-05-07T13:07:01.264Z,25.57
2023-05-07T13:09:29.642Z,25.41
2023-05-07T13:11:56.408Z,25.32
2023-05-07T13:14:23.075Z,25.38
2023-05-07T13:16:50.343Z,25.38
2023-05-07T13:19:17.187Z,25.51
2023-05-07T13:21:43.750Z,24.86
2023-05-07T13:24:10.435Z,24.70
2023-05-07T13:26:37.198Z,25.27
2023-05-07T13:29:03.810Z,24.88
2023-05-07T13:31:31.073Z,24.72
2023-05-07T13:33:57.735Z,25.01
2023-05-07T13:41:34.813Z,24.95
2023-05-07T13:44:01.443Z,25.05
2023-05-07T13:46:28.342Z,25.03
2023-05-07T13:49:24.060Z,24.69
2023-05-07T13:54:40.437Z,24.98
2023-05-07T13:57:07.084Z,24.89
2023-05-07T13:59:36.602Z,24.83
2023-05-07T14:02:03.206Z,24.64
2023-05-07T14:04:32.149Z,24.81
2023-05-07T14:06:58.702Z,24.87
2023-05-07T14:09:25.276Z,24.65
2023-05-07T14:11:52.437Z,24.98
2023-05-07T14:14:19.732Z,25.13
2023-05-07T14:16:48.415Z,24.84
2023-05-07T14:19:16.063Z,24.99
2023-05-07T14:45:17.216Z,24.48
2023-05-07T14:47:43.922Z,24.25
2023-05-07T14:50:11.782Z,24.26
2023-05-07T14:52:38.361Z,24.14
2023-05-07T14:55:05.746Z,23.98
2023-05-07T14:57:35.795Z,23.84
2023-05-07T15:00:14.346Z,23.97
2023-05-07T15:02:41.062Z,24.10
2023-05-07T15:05:15.410Z,24.33
2023-05-07T15:07:47.388Z,24.26
2023-05-07T15:15:24.827Z,24.41
2023-05-07T15:17:51.501Z,24.23
2023-05-07T15:20:18.729Z,23.99
2023-05-07T15:28:02.149Z,24.46
2023-05-07T15:30:29.744Z,24.23
2023-05-07T15:32:56.736Z,24.12
2023-05-07T15:35:23.550Z,24.15
2023-05-07T15:37:50.942Z,24.01
2023-05-07T15:40:38.757Z,24.00
2023-05-07T15:43:05.290Z,23.83
2023-05-07T15:45:32.027Z,23.79
2023-05-07T15:47:59.227Z,23.73
2023-05-07T15:50:26.255Z,23.62
2023-05-07T15:56:56.465Z,23.89
2023-05-07T15:59:27.526Z,23.62
2023-05-07T16:02:17.344Z,23.81
2023-05-07T16:04:45.009Z,23.85
2023-05-07T16:10:00.521Z,23.88
2023-05-07T16:12:29.974Z,23.66
2023-05-07T16:14:56.595Z,23.68
2023-05-07T16:17:32.694Z,23.57
2023-05-07T16:20:19.783Z,23.77
2023-05-07T16:22:48.138Z,23.85
2023-05-07T16:25:15.074Z,23.57
2023-05-07T16:32:58.440Z,23.54
2023-05-07T16:35:25.128Z,23.34
2023-05-07T16:37:54.882Z,23.33
2023-05-07T16:40:25.242Z,23.14
2023-05-07T16:43:00.483Z,23.18
2023-05-07T16:45:27.086Z,22.92
2023-05-07T16:47:54.679Z,23.00
2023-05-07T16:50:21.279Z,23.16
2023-05-07T16:52:53.423Z,22.99
2023-05-07T16:55:20.282Z,22.61
2023-05-07T16:57:46.899Z,22.49
2023-05-07T17:00:14.376Z,22.60
2023-05-07T17:02:41.124Z,22.56
2023-05-07T17:05:10.086Z,22.48
2023-05-07T17:07:38.042Z,22.09
2023-05-07T17:10:05.469Z,22.09
2023-05-07T17:12:32.073Z,22.24
2023-05-07T17:15:12.393Z,22.10
2023-05-07T17:17:40.951Z,22.26
2023-05-07T17:20:09.333Z,22.18
2023-05-07T17:22:36.024Z,22.06
2023-05-07T17:25:04.248Z,22.09
2023-05-07T17:27:37.034Z,21.70
2023-05-07T17:30:03.668Z,21.83
2023-05-07T17:32:30.452Z,21.76
2023-05-07T17:34:59.070Z,21.67
2023-05-07T17:37:26.155Z,21.72
2023-05-07T17:42:28.221Z,21.74
2023-05-07T17:44:55.899Z,21.55
2023-05-07T17:47:23.965Z,21.21
2023-05-07T17:49:50.557Z,21.34
2023-05-07T17:52:17.165Z,21.44
2023-05-07T18:02:51.910Z,21.50
2023-05-07T18:05:18.663Z,21.42
2023-05-07T18:07:45.588Z,21.53
2023-05-07T18:10:12.345Z,21.59
2023-05-07T18:12:40.383Z,21.55
2023-05-07T18:15:07.544Z,21.40
2023-05-07T18:17:34.158Z,21.40
2023-05-07T18:20:00.825Z,21.53
2023-05-07T18:22:27.765Z,21.44
2023-05-07T18:24:55.974Z,21.49
2023-05-07T18:27:22.605Z,21.40
2023-05-07T18:29:49.205Z,21.36
2023-05-07T18:32:16.546Z,21.31
2023-05-07T18:34:43.354Z,21.20
2023-05-07T18:37:09.946Z,21.12
2023-05-07T18:39:36.592Z,21.09
2023-05-07T18:42:05.262Z,20.93
2023-05-07T18:44:32.261Z,20.74
2023-05-07T18:47:06.059Z,20.68
2023-05-07T18:49:36.152Z,20.74
2023-05-07T18:52:05.490Z,20.80
2023-05-07T18:54:32.162Z,20.82
2023-05-07T18:56:58.898Z,20.82
2023-05-07T18:59:25.521Z,20.77
2023-05-07T19:01:52.144Z,20.61
2023-05-07T19:04:18.933Z,20.58
2023-05-07T19:06:46.028Z,20.58
2023-05-07T19:09:12.738Z,20.32
2023-05-07T19:11:39.306Z,20.13
2023-05-07T19:14:06.570Z,19.92
2023-05-07T19:16:33.376Z,19.55
2023-05-07T19:19:00.195Z,19.55
2023-05-07T19:21:28.578Z,19.74
2023-05-07T19:23:57.403Z,19.72
2023-05-07T19:26:24.292Z,19.35
2023-05-07T19:29:06.707Z,19.18
2023-05-07T19:31:38.517Z,19.16
2023-05-07T19:34:05.218Z,19.12
2023-05-07T19:36:34.338Z,18.99
2023-05-07T19:39:01.367Z,19.13
2023-05-07T19:41:28.678Z,18.95
2023-05-07T19:43:55.413Z,18.43
2023-05-07T19:46:22.146Z,18.18
2023-05-07T19:48:49.468Z,18.40
2023-05-07T19:51:16.128Z,18.53
2023-05-07T19:53:42.743Z,17.88
2023-05-07T19:56:10.717Z,18.15
2023-05-07T19:58:38.673Z,18.20
2023-05-07T20:01:06.380Z,17.97
2023-05-07T20:03:34.167Z,18.03
2023-05-07T20:06:01.351Z,17.81
2023-05-07T20:08:28.580Z,17.42
2023-05-07T20:10:57.703Z,17.68
2023-05-07T20:13:24.401Z,17.27
2023-05-07T20:15:51.039Z,17.45
2023-05-07T20:18:17.696Z,17.29
2023-05-07T20:20:45.413Z,16.90
2023-05-07T20:23:12.106Z,16.29
2023-05-07T20:25:41.408Z,16.59
2023-05-07T20:28:08.019Z,16.57
2023-05-07T20:30:34.804Z,16.75
2023-05-07T20:33:01.475Z,17.00
2023-05-07T20:35:28.138Z,17.14
2023-05-07T20:37:54.660Z,16.83
2023-05-07T20:40:21.388Z,16.74
2023-05-07T20:42:47.898Z,16.61
2023-05-07T20:45:14.555Z,16.72
2023-05-07T20:47:41.373Z,16.48
2023-05-07T20:50:08.229Z,16.38
2023-05-07T20:52:35.747Z,16.32
2023-05-07T20:55:02.396Z,16.14
2023-05-07T20:57:28.937Z,16.36
2023-05-07T20:59:55.510Z,16.06
2023-05-07T21:02:22.146Z,16.03
2023-05-07T21:04:51.430Z,15.95
2023-05-07T21:07:18.456Z,15.98
2023-05-07T21:09:45.052Z,16.11
2023-05-07T21:12:11.664Z,15.99
2023-05-07T21:14:39.402Z,15.88
2023-05-07T21:17:07.207Z,16.14
2023-05-07T21:19:34.076Z,16.08
2023-05-07T21:22:01.044Z,16.13
2023-05-07T21:24:27.682Z,16.27
2023-05-07T21:26:56.166Z,16.29
2023-05-07T21:33:06.922Z,16.22
2023-05-07T21:40:59.088Z,16.23
2023-05-07T21:51:52.268Z,15.82
2023-05-07T21:54:18.887Z,15.93
2023-05-07T21:56:49.991Z,15.85
2023-05-07T21:59:16.824Z,15.79
2023-05-07T22:01:43.405Z,15.54
2023-05-07T22:06:45.412Z,15.42
2023-05-07T22:09:12.389Z,15.21
2023-05-07T22:11:39.064Z,15.19
2023-05-07T22:14:27.626Z,15.26
2023-05-07T22:19:54.448Z,14.76
2023-05-07T22:22:51.216Z,14.76
2023-05-07T22:25:19.263Z,14.71
2023-05-07T22:27:45.986Z,14.71
2023-05-07T22:30:13.122Z,14.87
2023-05-07T22:32:42.177Z,15.05
2023-05-07T22:35:24.929Z,15.08
2023-05-07T22:37:51.466Z,15.16
2023-05-07T22:42:59.034Z,15.09
2023-05-07T22:49:12.350Z,15.09
2023-05-07T23:21:37.567Z,14.34
2023-05-07T23:26:39.429Z,14.49
2023-05-07T23:29:06.182Z,14.48
2023-05-07T23:31:32.844Z,14.27
2023-05-07T23:34:23.797Z,14.28
2023-05-07T23:36:51.337Z,14.50
2023-05-07T23:39:18.936Z,14.35
2023-05-07T23:41:46.075Z,14.40
2023-05-07T23:45:13.997Z,14.29
2023-05-07T23:48:00.647Z,14.18
2023-05-07T23:53:02.545Z,14.24
2023-05-07T23:55:29.148Z,14.29
2023-05-07T23:57:55.793Z,14.40
